Time;durP1;ratioP1;P1;durP2;ratioP2;P2;SDS_P1;SDS_P2;PMS_P1;PMS_P2;Temp;Humidity;BMP_temperature;BMP_pressure;BME280_temperature;BME280_humidity;BME280_pressure;Samples;Min_cycle;Max_cycle;Signal;HPM_P1;HPM_P2
2022/02/06 00:01:33;;;;;;;6.55;0.93;;;;;;;;;;5010674;28;20092;-44
2022/02/06 00:04:01;;;;;;;4.63;1.13;;;;;;;;;;5010892;28;20045;-40
2022/02/06 00:06:31;;;;;;;3.17;0.90;;;;;;;;;;5010746;28;20121;-39
2022/02/06 00:08:58;;;;;;;6.05;1.00;;;;;;;;;;5010722;28;20038;-42
2022/02/06 00:11:25;;;;;;;6.75;0.82;;;;;;;;;;4993034;28;20034;-42
2022/02/06 00:13:52;;;;;;;5.55;0.90;;;;;;;;;;5010433;28;20046;-48
2022/02/06 00:16:19;;;;;;;5.53;1.10;;;;;;;;;;5011083;28;20412;-41
2022/02/06 00:18:46;;;;;;;5.75;0.77;;;;;;;;;;5010619;28;20504;-41
2022/02/06 00:21:16;;;;;;;10.95;1.25;;;;;;;;;;5010348;28;20026;-45
2022/02/06 00:23:46;;;;;;;5.65;1.20;;;;;;;;;;5010661;28;20076;-40
2022/02/06 00:26:37;;;;;;;6.32;0.80;;;;;;;;;;5010791;28;20038;-41
2022/02/06 00:29:18;;;;;;;5.40;0.98;;;;;;;;;;5010549;28;20570;-40
2022/02/06 00:31:59;;;;;;;6.78;1.20;;;;;;;;;;5010231;28;20038;-40
2022/02/06 00:39:58;;;;;;;5.80;1.25;;;;;;;;;;5013907;28;20518;-45
2022/02/06 00:42:26;;;;;;;5.25;1.25;;;;;;;;;;5013633;28;20029;-39
2022/02/06 00:44:54;;;;;;;8.35;1.10;;;;;;;;;;5014149;28;20038;-42
2022/02/06 00:47:21;;;;;;;5.47;1.10;;;;;;;;;;5013804;28;20104;-42
2022/02/06 00:49:49;;;;;;;4.28;1.10;;;;;;;;;;5013548;28;20029;-44
2022/02/06 00:52:26;;;;;;;4.55;1.33;;;;;;;;;;5014293;28;20507;-40
2022/02/06 00:54:53;;;;;;;7.88;1.20;;;;;;;;;;5013723;28;20037;-40
2022/02/06 00:57:20;;;;;;;4.55;1.25;;;;;;;;;;5013395;28;20514;-40
2022/02/06 00:59:47;;;;;;;4.78;1.10;;;;;;;;;;5013643;28;20099;-41
2022/02/06 01:02:14;;;;;;;4.80;0.70;;;;;;;;;;5013897;28;20034;-39
2022/02/06 01:04:41;;;;;;;5.82;1.48;;;;;;;;;;5013232;28;20057;-43
2022/02/06 01:07:08;;;;;;;7.30;1.45;;;;;;;;;;5013492;28;20056;-45
2022/02/06 01:09:35;;;;;;;6.15;1.27;;;;;;;;;;5013561;28;20030;-41
2022/02/06 01:12:03;;;;;;;4.78;0.93;;;;;;;;;;4994473;28;20041;-40
2022/02/06 01:14:47;;;;;;;6.15;1.13;;;;;;;;;;5013203;28;20036;-40
2022/02/06 01:17:31;;;;;;;4.72;0.90;;;;;;;;;;5013396;28;20056;-38
2022/02/06 01:20:04;;;;;;;4.90;1.33;;;;;;;;;;5012993;28;20120;-40
2022/02/06 01:22:34;;;;;;;5.68;1.40;;;;;;;;;;5012842;28;20037;-41
2022/02/06 01:25:16;;;;;;;4.45;1.20;;;;;;;;;;5013085;28;20034;-43
2022/02/06 01:27:51;;;;;;;6.57;1.23;;;;;;;;;;5013043;28;20501;-44
2022/02/06 01:30:22;;;;;;;3.63;1.10;;;;;;;;;;5012869;28;20037;-43
2022/02/06 01:32:55;;;;;;;5.47;1.02;;;;;;;;;;5012932;28;20044;-43
2022/02/06 01:35:31;;;;;;;4.43;1.10;;;;;;;;;;5012818;28;20060;-45
2022/02/06 01:38:25;;;;;;;4.95;1.17;;;;;;;;;;5012424;28;20447;-43
2022/02/06 01:43:20;;;;;;;4.32;1.08;;;;;;;;;;5013171;28;20458;-42
2022/02/06 01:46:17;;;;;;;5.30;1.08;;;;;;;;;;5011528;28;20034;-43
2022/02/06 02:13:25;;;;;;;4.22;1.15;;;;;;;;;;5012573;28;20539;-40
2022/02/06 02:21:48;;;;;;;4.28;1.05;;;;;;;;;;5011910;28;20056;-43
2022/02/06 02:26:50;;;;;;;3.55;1.10;;;;;;;;;;5012071;28;20041;-42
2022/02/06 02:32:55;;;;;;;5.50;1.00;;;;;;;;;;5014661;28;20038;-44
2022/02/06 02:48:17;;;;;;;5.20;1.20;;;;;;;;;;5011699;28;20034;-42
2022/02/06 02:50:51;;;;;;;4.65;1.20;;;;;;;;;;5011514;28;20045;-39
2022/02/06 02:53:34;;;;;;;6.35;1.13;;;;;;;;;;5011431;28;20038;-43
2022/02/06 02:57:07;;;;;;;5.20;1.33;;;;;;;;;;5010758;28;20045;-40
2022/02/06 02:59:09;;;;;;;5.93;1.10;;;;;;;;;;4997998;28;20077;-41
2022/02/06 03:01:44;;;;;;;3.10;1.10;;;;;;;;;;5011667;28;20487;-41
2022/02/06 03:04:11;;;;;;;3.30;1.05;;;;;;;;;;5011102;28;20034;-41
2022/02/06 03:06:38;;;;;;;4.28;1.00;;;;;;;;;;5011340;28;20030;-42
2022/02/06 03:09:06;;;;;;;3.15;1.10;;;;;;;;;;5011379;28;20077;-44
2022/02/06 03:11:33;;;;;;;4.25;1.02;;;;;;;;;;5011272;28;20029;-43
2022/02/06 03:14:14;;;;;;;4.82;1.10;;;;;;;;;;5011205;28;20026;-42
2022/02/06 03:16:50;;;;;;;5.38;1.30;;;;;;;;;;5011339;28;20030;-42
2022/02/06 03:19:20;;;;;;;3.05;0.90;;;;;;;;;;5011129;28;20120;-45
2022/02/06 03:21:47;;;;;;;7.18;1.50;;;;;;;;;;5010653;28;20029;-43
2022/02/06 03:26:48;;;;;;;3.22;0.90;;;;;;;;;;5011487;28;20065;-47
2022/02/06 03:29:16;;;;;;;3.85;1.10;;;;;;;;;;5010795;28;20026;-42
2022/02/06 03:31:44;;;;;;;2.97;0.85;;;;;;;;;;5010978;28;20105;-43
2022/02/06 03:34:11;;;;;;;5.13;1.38;;;;;;;;;;5011024;28;20069;-41
2022/02/06 03:36:38;;;;;;;4.68;1.30;;;;;;;;;;5010717;28;20101;-43
2022/02/06 03:39:06;;;;;;;2.60;1.00;;;;;;;;;;5011446;28;20445;-42
2022/02/06 03:41:53;;;;;;;5.60;1.10;;;;;;;;;;5011019;28;20034;-40
2022/02/06 03:47:07;;;;;;;3.05;1.00;;;;;;;;;;5011275;28;20030;-43
2022/02/06 03:49:54;;;;;;;4.13;1.23;;;;;;;;;;5010740;28;20032;-45
2022/02/06 03:52:31;;;;;;;5.57;1.33;;;;;;;;;;5010799;28;20044;-41
2022/02/06 03:54:58;;;;;;;5.82;1.30;;;;;;;;;;5010399;28;20030;-47
2022/02/06 03:57:25;;;;;;;2.97;0.95;;;;;;;;;;5010855;28;20472;-43
2022/02/06 03:59:52;;;;;;;3.22;1.15;;;;;;;;;;4992954;28;20030;-42
2022/02/06 04:02:19;;;;;;;2.50;1.08;;;;;;;;;;5010593;28;20495;-39
2022/02/06 04:04:46;;;;;;;2.60;1.00;;;;;;;;;;5010960;28;20084;-44
2022/02/06 04:07:14;;;;;;;3.10;1.00;;;;;;;;;;5010836;28;20037;-40
2022/02/06 04:09:52;;;;;;;2.70;0.85;;;;;;;;;;5013847;28;20042;-38
2022/02/06 04:12:21;;;;;;;5.70;1.33;;;;;;;;;;5014339;28;20057;-41
2022/02/06 04:14:57;;;;;;;3.88;1.10;;;;;;;;;;5014627;28;20053;-39
2022/02/06 04:17:29;;;;;;;3.17;1.15;;;;;;;;;;5014076;28;20033;-41
2022/02/06 04:19:56;;;;;;;3.60;1.27;;;;;;;;;;5014463;28;20392;-42
2022/02/06 04:22:23;;;;;;;2.10;0.93;;;;;;;;;;5014411;28;20542;-42
2022/02/06 04:24:51;;;;;;;5.78;1.23;;;;;;;;;;4996455;28;20030;-42
2022/02/06 04:27:18;;;;;;;3.40;1.30;;;;;;;;;;5014275;28;20061;-41
2022/02/06 04:29:48;;;;;;;4.25;1.13;;;;;;;;;;5014147;28;20037;-42
2022/02/06 04:32:15;;;;;;;4.25;1.50;;;;;;;;;;5013694;28;20125;-44
2022/02/06 04:34:42;;;;;;;3.05;1.00;;;;;;;;;;5014018;28;20086;-40
2022/02/06 04:40:13;;;;;;;4.65;1.50;;;;;;;;;;5014052;28;20054;-41
2022/02/06 04:45:57;;;;;;;4.07;1.00;;;;;;;;;;5014208;28;20484;-42
2022/02/06 04:48:36;;;;;;;4.40;1.08;;;;;;;;;;5013325;28;20033;-40
2022/02/06 04:54:03;;;;;;;2.67;1.30;;;;;;;;;;4972822;28;20057;-43
2022/02/06 05:16:02;;;;;;;7.95;1.30;;;;;;;;;;5013328;28;20111;-46
2022/02/06 05:19:00;;;;;;;4.50;1.30;;;;;;;;;;5013343;28;20052;-42
2022/02/06 05:34:19;;;;;;;2.67;1.05;;;;;;;;;;5012721;28;20038;-40
2022/02/06 05:36:47;;;;;;;2.85;1.02;;;;;;;;;;5013066;28;20030;-40
2022/02/06 05:39:15;;;;;;;3.70;1.15;;;;;;;;;;5012872;28;20034;-45
2022/02/06 05:41:41;;;;;;;3.70;1.10;;;;;;;;;;5012630;28;20061;-45
2022/02/06 05:44:08;;;;;;;2.83;1.20;;;;;;;;;;5012947;28;20060;-40
2022/02/06 05:46:35;;;;;;;4.78;1.20;;;;;;;;;;5013033;28;20083;-42
2022/02/06 05:49:02;;;;;;;4.60;1.25;;;;;;;;;;4994584;28;20032;-39
2022/02/06 05:51:29;;;;;;;3.25;1.15;;;;;;;;;;5012630;28;20069;-41
2022/02/06 05:53:56;;;;;;;3.80;1.00;;;;;;;;;;5012823;28;20517;-42
2022/02/06 05:56:24;;;;;;;3.95;1.02;;;;;;;;;;5012356;28;20388;-41
2022/02/06 05:58:51;;;;;;;3.33;1.10;;;;;;;;;;5012444;28;20018;-45
2022/02/06 06:01:18;;;;;;;2.92;1.10;;;;;;;;;;5012617;28;20029;-42
2022/02/06 06:03:45;;;;;;;2.83;1.20;;;;;;;;;;5011983;28;20041;-44
2022/02/06 06:06:12;;;;;;;3.08;1.10;;;;;;;;;;5012346;28;20059;-38
2022/02/06 06:08:39;;;;;;;2.40;1.15;;;;;;;;;;5012363;28;20037;-47
2022/02/06 06:11:06;;;;;;;2.47;1.05;;;;;;;;;;5012035;28;20113;-42
2022/02/06 06:13:33;;;;;;;1.80;1.10;;;;;;;;;;5012173;28;20049;-41
2022/02/06 06:16:00;;;;;;;3.35;1.23;;;;;;;;;;5012254;28;20037;-39
2022/02/06 06:18:27;;;;;;;3.60;1.23;;;;;;;;;;5011638;28;20522;-38
2022/02/06 06:20:54;;;;;;;3.20;1.20;;;;;;;;;;5012137;28;20109;-39
2022/02/06 06:23:24;;;;;;;4.05;1.15;;;;;;;;;;5011982;28;20164;-38
2022/02/06 06:25:52;;;;;;;2.20;1.00;;;;;;;;;;5011637;28;20503;-44
2022/02/06 06:28:19;;;;;;;2.30;1.02;;;;;;;;;;5011824;28;20137;-40
2022/02/06 06:30:46;;;;;;;4.30;0.95;;;;;;;;;;5011944;28;20026;-41
2022/02/06 06:33:14;;;;;;;2.33;0.93;;;;;;;;;;5011595;28;20057;-43
2022/02/06 06:35:41;;;;;;;3.30;1.20;;;;;;;;;;5011804;28;20030;-41
2022/02/06 06:38:08;;;;;;;3.85;1.20;;;;;;;;;;5176031;22;20137;-48
2022/02/06 06:40:35;;;;;;;4.45;1.38;;;;;;;;;;5031080;28;20026;-49
2022/02/06 06:43:02;;;;;;;3.03;1.17;;;;;;;;;;5031091;28;20038;-51
2022/02/06 06:45:29;;;;;;;2.42;1.05;;;;;;;;;;5031422;28;20041;-49
2022/02/06 06:47:59;;;;;;;4.60;1.08;;;;;;;;;;5031563;28;20025;-50
2022/02/06 06:50:32;;;;;;;2.85;1.30;;;;;;;;;;5031580;28;20485;-47
2022/02/06 06:53:04;;;;;;;3.10;1.23;;;;;;;;;;5032068;28;20022;-52
2022/02/06 06:55:34;;;;;;;3.25;1.00;;;;;;;;;;5030742;28;20065;-50
2022/02/06 06:58:39;;;;;;;3.42;0.90;;;;;;;;;;5031735;28;20021;-50
2022/02/06 07:00:57;;;;;;;2.17;1.08;;;;;;;;;;5029061;28;20037;-48
2022/02/06 07:03:24;;;;;;;2.78;1.08;;;;;;;;;;5031051;28;20080;-48
2022/02/06 07:05:51;;;;;;;3.47;0.95;;;;;;;;;;5031807;28;20084;-48
2022/02/06 07:08:19;;;;;;;1.83;0.90;;;;;;;;;;5030808;28;20056;-52
2022/02/06 07:10:47;;;;;;;4.28;1.08;;;;;;;;;;5031522;28;20111;-52
2022/02/06 07:13:14;;;;;;;2.05;1.00;;;;;;;;;;5031090;28;20112;-52
2022/02/06 07:15:41;;;;;;;2.10;1.05;;;;;;;;;;5031437;28;20026;-49
2022/02/06 07:18:08;;;;;;;2.40;0.77;;;;;;;;;;5031514;28;20025;-48
2022/02/06 07:20:36;;;;;;;2.35;0.95;;;;;;;;;;5030682;28;20041;-49
2022/02/06 07:23:05;;;;;;;2.38;1.20;;;;;;;;;;5031301;28;20033;-51
2022/02/06 07:25:33;;;;;;;3.80;1.02;;;;;;;;;;5031048;28;20026;-49
2022/02/06 07:28:00;;;;;;;3.45;1.05;;;;;;;;;;5031203;28;20099;-50
2022/02/06 07:30:27;;;;;;;1.98;0.80;;;;;;;;;;5031425;28;20056;-51
2022/02/06 07:32:54;;;;;;;4.28;1.10;;;;;;;;;;5030791;28;20049;-52
2022/02/06 07:35:21;;;;;;;2.65;0.88;;;;;;;;;;5030980;28;20100;-53
2022/02/06 07:37:55;;;;;;;2.03;0.98;;;;;;;;;;5030585;28;20045;-49
2022/02/06 07:40:22;;;;;;;3.10;1.00;;;;;;;;;;5030907;28;20375;-47
2022/02/06 07:42:49;;;;;;;2.65;0.93;;;;;;;;;;5031487;28;20079;-52
2022/02/06 07:45:16;;;;;;;3.53;1.38;;;;;;;;;;5035037;28;20017;-52
2022/02/06 07:47:45;;;;;;;4.55;1.35;;;;;;;;;;5034937;28;20033;-48
2022/02/06 07:50:13;;;;;;;2.13;0.75;;;;;;;;;;5035288;28;20105;-47
2022/02/06 07:52:41;;;;;;;2.13;0.90;;;;;;;;;;5034157;28;20882;-50
2022/02/06 07:55:08;;;;;;;1.85;0.85;;;;;;;;;;5035273;28;20022;-52
2022/02/06 07:57:36;;;;;;;2.13;0.80;;;;;;;;;;5034675;28;20104;-50
2022/02/06 08:00:04;;;;;;;2.25;0.90;;;;;;;;;;5034847;28;20101;-50
2022/02/06 08:02:31;;;;;;;2.33;1.00;;;;;;;;;;5035026;28;20026;-49
2022/02/06 08:04:59;;;;;;;1.92;0.90;;;;;;;;;;5034617;28;20104;-49
2022/02/06 08:07:27;;;;;;;1.90;0.95;;;;;;;;;;5034974;28;20087;-50
2022/02/06 08:09:56;;;;;;;1.90;0.80;;;;;;;;;;5034359;28;20116;-53
2022/02/06 08:12:33;;;;;;;1.88;1.15;;;;;;;;;;5034492;28;20034;-51
2022/02/06 08:15:03;;;;;;;2.55;1.00;;;;;;;;;;5035053;28;20032;-48
2022/02/06 08:17:30;;;;;;;3.17;1.05;;;;;;;;;;5033933;28;20024;-49
2022/02/06 08:19:59;;;;;;;2.33;0.80;;;;;;;;;;5034790;28;20033;-49
2022/02/06 08:22:26;;;;;;;2.75;0.90;;;;;;;;;;5033863;28;20071;-49
2022/02/06 08:24:53;;;;;;;2.25;0.65;;;;;;;;;;5034658;28;20013;-51
2022/02/06 08:27:22;;;;;;;2.42;1.08;;;;;;;;;;5034627;28;20097;-51
2022/02/06 08:29:49;;;;;;;1.05;0.80;;;;;;;;;;5033756;28;20064;-51
2022/02/06 08:32:18;;;;;;;1.65;0.80;;;;;;;;;;5034644;28;20410;-48
2022/02/06 08:34:45;;;;;;;2.78;1.00;;;;;;;;;;5033537;28;20021;-51
2022/02/06 08:37:12;;;;;;;2.50;1.00;;;;;;;;;;5034037;28;20053;-50
2022/02/06 08:39:40;;;;;;;2.40;0.85;;;;;;;;;;5034552;28;20025;-52
2022/02/06 08:42:09;;;;;;;1.65;0.82;;;;;;;;;;5033497;28;20556;-50
2022/02/06 08:44:40;;;;;;;4.75;0.98;;;;;;;;;;5034273;28;20037;-47
2022/02/06 08:47:07;;;;;;;1.35;0.70;;;;;;;;;;5033430;28;20025;-50
2022/02/06 08:49:35;;;;;;;3.92;0.75;;;;;;;;;;5034259;28;20434;-53
2022/02/06 08:52:02;;;;;;;2.67;0.80;;;;;;;;;;5034178;28;20087;-51
2022/02/06 08:54:32;;;;;;;2.28;1.20;;;;;;;;;;5033274;28;20041;-50
2022/02/06 08:57:02;;;;;;;2.63;0.90;;;;;;;;;;5033821;28;20148;-50
2022/02/06 08:59:30;;;;;;;1.77;0.90;;;;;;;;;;5033320;28;20048;-49
2022/02/06 09:01:58;;;;;;;1.48;0.88;;;;;;;;;;5033850;28;20055;-49
2022/02/06 09:04:25;;;;;;;1.85;0.73;;;;;;;;;;5033984;28;20025;-51
2022/02/06 09:06:56;;;;;;;2.10;0.95;;;;;;;;;;5032996;28;20017;-49
2022/02/06 09:09:24;;;;;;;2.25;1.10;;;;;;;;;;5033960;28;20025;-52
2022/02/06 09:11:52;;;;;;;2.65;0.70;;;;;;;;;;5033092;28;20060;-50
2022/02/06 09:14:21;;;;;;;2.45;0.80;;;;;;;;;;5033630;28;20434;-50
2022/02/06 09:16:48;;;;;;;2.55;0.90;;;;;;;;;;5033296;28;20036;-50
2022/02/06 09:19:15;;;;;;;1.70;0.70;;;;;;;;;;5033105;28;20022;-50
2022/02/06 09:21:43;;;;;;;1.48;0.65;;;;;;;;;;5033709;28;20034;-50
2022/02/06 09:24:10;;;;;;;2.17;0.90;;;;;;;;;;5032684;28;20030;-50
2022/02/06 09:26:39;;;;;;;2.38;0.82;;;;;;;;;;5033594;28;20475;-52
2022/02/06 09:29:06;;;;;;;2.25;0.90;;;;;;;;;;5033059;28;20128;-49
2022/02/06 09:31:35;;;;;;;4.38;0.85;;;;;;;;;;5032840;28;20029;-49
2022/02/06 09:36:28;;;;;;;3.65;0.68;;;;;;;;;;5032354;28;20033;-49
2022/02/06 09:38:55;;;;;;;2.15;0.80;;;;;;;;;;5033302;28;20098;-52
2022/02/06 09:41:23;;;;;;;3.22;0.80;;;;;;;;;;5032939;28;20045;-49
2022/02/06 09:43:50;;;;;;;1.98;0.68;;;;;;;;;;5033035;28;20100;-47
2022/02/06 09:46:19;;;;;;;1.65;0.77;;;;;;;;;;5014802;28;20401;-47
2022/02/06 09:48:47;;;;;;;1.70;0.70;;;;;;;;;;5032756;28;20506;-49
2022/02/06 09:51:14;;;;;;;2.40;0.70;;;;;;;;;;5032671;28;20065;-50
2022/02/06 09:53:41;;;;;;;1.38;0.57;;;;;;;;;;5032619;28;20045;-53
2022/02/06 09:56:12;;;;;;;1.80;0.70;;;;;;;;;;5032801;28;20433;-47
2022/02/06 10:01:11;;;;;;;1.25;0.63;;;;;;;;;;5032676;28;20271;-51
2022/02/06 10:03:43;;;;;;;1.70;0.50;;;;;;;;;;5032347;28;20017;-51
2022/02/06 10:06:13;;;;;;;3.58;0.80;;;;;;;;;;5032011;28;20029;-50
2022/02/06 10:08:40;;;;;;;3.10;0.52;;;;;;;;;;5032712;28;20018;-52
2022/02/06 10:11:14;;;;;;;3.17;0.80;;;;;;;;;;5032013;28;20074;-50
2022/02/06 10:13:42;;;;;;;1.33;0.63;;;;;;;;;;5032848;28;20033;-49
2022/02/06 10:16:10;;;;;;;2.17;0.52;;;;;;;;;;5031909;28;20479;-47
2022/02/06 10:18:37;;;;;;;1.60;0.52;;;;;;;;;;5032408;28;20103;-49
2022/02/06 10:21:06;;;;;;;2.97;0.85;;;;;;;;;;5032367;28;20021;-50
2022/02/06 10:26:08;;;;;;;3.47;0.77;;;;;;;;;;5032388;28;20041;-51
2022/02/06 10:28:41;;;;;;;1.35;0.70;;;;;;;;;;5031373;28;20471;-49
2022/02/06 10:31:09;;;;;;;1.08;0.60;;;;;;;;;;5032270;28;20368;-49
2022/02/06 10:33:46;;;;;;;2.15;0.68;;;;;;;;;;5031943;28;20096;-48
2022/02/06 10:36:15;;;;;;;2.92;0.68;;;;;;;;;;5031780;28;20104;-48
2022/02/06 10:38:42;;;;;;;1.13;0.70;;;;;;;;;;5031947;28;20096;-49
2022/02/06 10:41:13;;;;;;;2.20;0.63;;;;;;;;;;5031320;28;20037;-50
2022/02/06 10:43:53;;;;;;;3.88;0.60;;;;;;;;;;5032182;28;20083;-50
2022/02/06 10:46:20;;;;;;;4.72;0.90;;;;;;;;;;5031531;28;20037;-48
2022/02/06 10:48:55;;;;;;;1.73;0.60;;;;;;;;;;5031594;28;20448;-47
2022/02/06 10:51:38;;;;;;;1.90;0.60;;;;;;;;;;5031853;28;20068;-51
2022/02/06 10:54:09;;;;;;;1.00;0.60;;;;;;;;;;5031384;28;20029;-49
2022/02/06 10:56:40;;;;;;;2.03;0.82;;;;;;;;;;5031967;28;20021;-47
2022/02/06 10:59:08;;;;;;;2.20;0.75;;;;;;;;;;5031303;28;20491;-49
2022/02/06 11:01:40;;;;;;;2.17;0.77;;;;;;;;;;5031458;28;20041;-51
2022/02/06 11:04:08;;;;;;;;;;;;;;;;;;5031777;28;20038;-52
2022/02/06 11:06:55;;;;;;;1.67;0.75;;;;;;;;;;5031199;28;19916;-50
2022/02/06 11:09:31;;;;;;;1.50;0.70;;;;;;;;;;5031600;28;20384;-49
2022/02/06 11:11:59;;;;;;;0.98;0.63;;;;;;;;;;5031224;28;20037;-50
2022/02/06 11:14:27;;;;;;;2.38;0.60;;;;;;;;;;5031303;28;20403;-49
2022/02/06 11:16:55;;;;;;;1.27;0.47;;;;;;;;;;5031156;28;20033;-48
2022/02/06 11:19:22;;;;;;;0.80;0.52;;;;;;;;;;5030337;28;20542;-51
2022/02/06 11:22:09;;;;;;;1.42;0.60;;;;;;;;;;5031530;28;20487;-50
2022/02/06 11:24:40;;;;;;;1.70;0.60;;;;;;;;;;5031240;28;20025;-51
2022/02/06 11:27:08;;;;;;;1.20;0.50;;;;;;;;;;5031411;28;20440;-51
2022/02/06 11:29:35;;;;;;;1.02;0.50;;;;;;;;;;5031077;28;20029;-48
2022/02/06 11:32:03;;;;;;;1.60;0.50;;;;;;;;;;5031164;28;20061;-49
2022/02/06 11:34:30;;;;;;;2.33;0.85;;;;;;;;;;5031305;28;20036;-50
2022/02/06 11:45:41;;;;;;;0.55;0.50;;;;;;;;;;5031938;28;20051;-47
2022/02/06 11:48:09;;;;;;;1.35;0.60;;;;;;;;;;5031182;28;20040;-50
2022/02/06 11:50:37;;;;;;;1.38;0.50;;;;;;;;;;5031421;28;20029;-52
2022/02/06 11:53:06;;;;;;;2.03;0.90;;;;;;;;;;5031630;28;20087;-54
2022/02/06 11:55:43;;;;;;;1.58;0.40;;;;;;;;;;5031181;28;20045;-52
2022/02/06 11:58:19;;;;;;;1.15;0.60;;;;;;;;;;5031239;28;20483;-50
2022/02/06 12:00:46;;;;;;;1.52;0.40;;;;;;;;;;5031547;28;20032;-53
2022/02/06 12:03:13;;;;;;;2.13;0.60;;;;;;;;;;5031209;28;20038;-52
2022/02/06 12:06:00;;;;;;;1.88;0.50;;;;;;;;;;5031292;28;20025;-48
2022/02/06 12:08:27;;;;;;;1.98;0.60;;;;;;;;;;5031326;28;20034;-51
2022/02/06 12:11:00;;;;;;;1.30;0.50;;;;;;;;;;5031377;28;20052;-50
2022/02/06 12:13:31;;;;;;;1.25;0.50;;;;;;;;;;5031470;28;20025;-51
2022/02/06 12:16:07;;;;;;;3.60;0.60;;;;;;;;;;5031129;28;20064;-50
2022/02/06 12:18:37;;;;;;;1.20;0.60;;;;;;;;;;5031129;28;20064;-51
2022/02/06 12:21:20;;;;;;;1.80;0.50;;;;;;;;;;5031170;28;20076;-50
2022/02/06 12:23:55;;;;;;;2.30;0.57;;;;;;;;;;5031007;28;20029;-53
2022/02/06 12:26:30;;;;;;;2.35;0.60;;;;;;;;;;5031112;28;20042;-51
2022/02/06 12:29:08;;;;;;;3.17;0.68;;;;;;;;;;5031801;28;20048;-48
2022/02/06 12:31:47;;;;;;;1.10;0.50;;;;;;;;;;5034454;28;20490;-51
2022/02/06 12:36:52;;;;;;;3.53;0.60;;;;;;;;;;5034799;28;20037;-54
2022/02/06 12:37:28;;;;;;;3.63;0.77;;;;;;;;;;5033452;28;20171;-53
2022/02/06 12:39:57;;;;;;;1.20;0.50;;;;;;;;;;5034754;28;20056;-50
2022/02/06 12:42:28;;;;;;;1.85;0.60;;;;;;;;;;5033883;28;20487;-51
2022/02/06 12:44:59;;;;;;;3.30;0.70;;;;;;;;;;5016401;28;20386;-54
2022/02/06 12:47:27;;;;;;;1.00;0.50;;;;;;;;;;5034265;28;20483;-49
2022/02/06 12:49:54;;;;;;;1.73;0.60;;;;;;;;;;5034157;28;20109;-50
2022/02/06 12:52:21;;;;;;;1.35;0.50;;;;;;;;;;5034305;28;20034;-52
2022/02/06 12:54:48;;;;;;;3.25;0.60;;;;;;;;;;5034135;28;20033;-50
2022/02/06 12:57:19;;;;;;;0.75;0.40;;;;;;;;;;5034130;28;20061;-51
2022/02/06 12:59:46;;;;;;;1.60;0.40;;;;;;;;;;5033653;28;20479;-52
2022/02/06 13:02:15;;;;;;;1.95;0.63;;;;;;;;;;5033990;28;20475;-51
2022/02/06 13:04:58;;;;;;;0.93;0.50;;;;;;;;;;5034009;28;20061;-53
2022/02/06 13:07:30;;;;;;;1.45;0.43;;;;;;;;;;5033810;28;20109;-52
2022/02/06 13:10:03;;;;;;;1.52;0.60;;;;;;;;;;5033864;28;20097;-48
2022/02/06 13:12:38;;;;;;;1.92;0.60;;;;;;;;;;5033540;28;20521;-48
2022/02/06 13:17:52;;;;;;;1.02;0.50;;;;;;;;;;5033740;28;20503;-49
2022/02/06 13:31:01;;;;;;;1.55;0.40;;;;;;;;;;5033570;28;20041;-50
2022/02/06 13:36:11;;;;;;;2.63;0.43;;;;;;;;;;5033120;28;20033;-52
2022/02/06 13:38:38;;;;;;;2.67;0.80;;;;;;;;;;5032856;28;20068;-50
2022/02/06 13:41:12;;;;;;;0.85;0.45;;;;;;;;;;5032492;28;20068;-51
2022/02/06 13:43:41;;;;;;;0.77;0.43;;;;;;;;;;5033191;28;20037;-47
2022/02/06 13:46:16;;;;;;;1.85;0.60;;;;;;;;;;5033305;28;20068;-52
2022/02/06 13:48:46;;;;;;;2.85;0.63;;;;;;;;;;5033124;28;20021;-52
2022/02/06 13:51:13;;;;;;;1.60;0.60;;;;;;;;;;5033178;28;20555;-53
2022/02/06 13:53:40;;;;;;;2.35;0.57;;;;;;;;;;5032892;28;20025;-51
2022/02/06 13:56:16;;;;;;;1.05;0.50;;;;;;;;;;5032979;28;20025;-50
2022/02/06 13:58:57;;;;;;;4.10;0.50;;;;;;;;;;5032893;28;20034;-50
2022/02/06 14:01:24;;;;;;;1.13;0.60;;;;;;;;;;5032710;28;20059;-50
2022/02/06 14:03:56;;;;;;;2.15;0.57;;;;;;;;;;5033021;28;20029;-48
2022/02/06 14:06:36;;;;;;;4.68;0.50;;;;;;;;;;5032451;28;20395;-49
2022/02/06 14:09:12;;;;;;;2.70;0.70;;;;;;;;;;5032753;28;20099;-50
2022/02/06 14:11:39;;;;;;;1.50;0.45;;;;;;;;;;5032370;28;20038;-49
2022/02/06 14:14:26;;;;;;;2.78;0.77;;;;;;;;;;5032666;28;20044;-53
2022/02/06 14:16:55;;;;;;;1.10;0.47;;;;;;;;;;5032645;28;20036;-51
2022/02/06 14:19:44;;;;;;;2.03;0.50;;;;;;;;;;5032046;28;20084;-52
2022/02/06 14:22:15;;;;;;;0.80;0.50;;;;;;;;;;5032647;28;20179;-50
2022/02/06 14:24:52;;;;;;;1.13;0.50;;;;;;;;;;5032299;28;20569;-53
2022/02/06 14:27:38;;;;;;;3.17;0.98;;;;;;;;;;5032476;28;20028;-49
2022/02/06 14:30:05;;;;;;;4.53;0.63;;;;;;;;;;5032466;28;20022;-50
2022/02/06 14:32:33;;;;;;;2.38;0.60;;;;;;;;;;5032333;28;20132;-54
2022/02/06 14:35:08;;;;;;;3.15;0.50;;;;;;;;;;5014642;28;20506;-54
2022/02/06 14:37:46;;;;;;;1.75;0.50;;;;;;;;;;5031841;28;20076;-53
2022/02/06 14:40:29;;;;;;;3.58;0.77;;;;;;;;;;5032126;28;20033;-50
2022/02/06 14:43:11;;;;;;;3.00;0.50;;;;;;;;;;5031957;28;20128;-54
2022/02/06 14:45:58;;;;;;;1.23;0.60;;;;;;;;;;5032017;28;20034;-51
2022/02/06 14:48:28;;;;;;;2.78;0.43;;;;;;;;;;5031985;28;20096;-52
2022/02/06 14:50:55;;;;;;;2.38;0.55;;;;;;;;;;5031957;28;20030;-50
2022/02/06 14:53:23;;;;;;;1.88;0.50;;;;;;;;;;5031524;28;20025;-50
2022/02/06 14:55:51;;;;;;;3.65;0.80;;;;;;;;;;5031981;28;20041;-51
2022/02/06 14:58:19;;;;;;;2.90;0.77;;;;;;;;;;5031545;28;20037;-49
2022/02/06 15:00:46;;;;;;;1.25;0.60;;;;;;;;;;5031677;28;20045;-52
2022/02/06 15:03:17;;;;;;;7.40;0.80;;;;;;;;;;5031749;28;20029;-52
2022/02/06 15:05:44;;;;;;;4.30;0.82;;;;;;;;;;5031423;28;20036;-48
2022/02/06 15:08:12;;;;;;;0.98;0.50;;;;;;;;;;5031795;28;20071;-51
2022/02/06 15:10:40;;;;;;;3.70;0.88;;;;;;;;;;5031679;28;20061;-49
2022/02/06 15:13:11;;;;;;;5.10;0.70;;;;;;;;;;5031461;28;20036;-53
2022/02/06 15:15:52;;;;;;;2.58;0.60;;;;;;;;;;5031726;28;20033;-51
2022/02/06 15:18:35;;;;;;;6.18;1.25;;;;;;;;;;5030979;28;20029;-52
2022/02/06 15:21:03;;;;;;;3.95;0.90;;;;;;;;;;5031536;28;20091;-49
2022/02/06 15:23:30;;;;;;;3.03;0.85;;;;;;;;;;5031043;28;20094;-52
2022/02/06 15:25:57;;;;;;;4.03;0.60;;;;;;;;;;5031658;28;20037;-49
2022/02/06 15:28:25;;;;;;;5.07;0.80;;;;;;;;;;5031410;28;20038;-52
2022/02/06 15:30:52;;;;;;;4.82;0.80;;;;;;;;;;5031232;28;20507;-53
2022/02/06 15:33:20;;;;;;;1.90;0.70;;;;;;;;;;5013750;28;20076;-51
2022/02/06 15:35:47;;;;;;;5.20;0.80;;;;;;;;;;5012928;28;20364;-49
2022/02/06 15:38:16;;;;;;;2.63;0.82;;;;;;;;;;5031334;28;20049;-54
2022/02/06 15:40:43;;;;;;;5.85;0.80;;;;;;;;;;5030972;28;20038;-52
2022/02/06 15:43:10;;;;;;;4.38;0.85;;;;;;;;;;5031078;28;20037;-50
2022/02/06 15:45:39;;;;;;;5.03;0.93;;;;;;;;;;5031243;28;20025;-52
2022/02/06 15:48:09;;;;;;;2.95;0.80;;;;;;;;;;5031226;28;20430;-51
2022/02/06 15:50:37;;;;;;;3.03;0.60;;;;;;;;;;5031313;28;20032;-48
2022/02/06 15:53:04;;;;;;;4.47;0.70;;;;;;;;;;5030910;28;20033;-48
2022/02/06 15:55:32;;;;;;;4.80;0.90;;;;;;;;;;5031234;28;20471;-53
2022/02/06 15:57:59;;;;;;;4.82;1.00;;;;;;;;;;5031389;28;20495;-49
2022/02/06 16:00:26;;;;;;;5.85;0.88;;;;;;;;;;5030880;28;20063;-53
2022/02/06 16:02:53;;;;;;;3.00;0.85;;;;;;;;;;5030842;28;20033;-48
2022/02/06 16:05:20;;;;;;;2.75;0.80;;;;;;;;;;5033550;28;20108;-54
2022/02/06 16:07:47;;;;;;;3.45;0.95;;;;;;;;;;5035043;28;20060;-52
2022/02/06 16:10:14;;;;;;;6.07;1.25;;;;;;;;;;5035214;28;20783;-50
2022/02/06 16:12:42;;;;;;;5.45;0.93;;;;;;;;;;5034569;28;20486;-50
2022/02/06 16:15:09;;;;;;;3.60;1.00;;;;;;;;;;5017382;28;20452;-50
2022/02/06 16:17:36;;;;;;;3.08;1.08;;;;;;;;;;5034317;28;20382;-48
2022/02/06 16:20:08;;;;;;;4.22;1.13;;;;;;;;;;5017047;28;20022;-50
2022/02/06 16:22:35;;;;;;;5.40;1.08;;;;;;;;;;5034886;28;20145;-52
2022/02/06 16:25:03;;;;;;;2.03;0.88;;;;;;;;;;5034603;28;20055;-51
2022/02/06 16:27:30;;;;;;;5.22;1.10;;;;;;;;;;5034814;28;20040;-48
2022/02/06 16:29:58;;;;;;;4.00;1.20;;;;;;;;;;5034368;28;20037;-49
2022/02/06 16:32:25;;;;;;;6.22;1.13;;;;;;;;;;5034544;28;20037;-52
2022/02/06 16:34:52;;;;;;;5.82;1.40;;;;;;;;;;5034180;28;20029;-50
2022/02/06 16:37:19;;;;;;;2.75;1.10;;;;;;;;;;5035704;28;20585;-50
2022/02/06 16:39:47;;;;;;;3.00;0.90;;;;;;;;;;5035539;28;20380;-50
2022/02/06 16:42:15;;;;;;;4.30;1.00;;;;;;;;;;5034513;28;20037;-48
2022/02/06 16:44:42;;;;;;;5.15;1.23;;;;;;;;;;5034226;28;20451;-51
2022/02/06 16:47:10;;;;;;;3.78;0.90;;;;;;;;;;5034175;28;20041;-51
2022/02/06 16:49:38;;;;;;;4.32;1.10;;;;;;;;;;5034057;28;20033;-51
2022/02/06 16:52:05;;;;;;;4.80;0.95;;;;;;;;;;5034227;28;20075;-49
2022/02/06 16:54:32;;;;;;;6.55;1.13;;;;;;;;;;5033992;28;20112;-50
2022/02/06 16:57:00;;;;;;;2.15;1.00;;;;;;;;;;5034137;28;20044;-53
2022/02/06 16:59:28;;;;;;;2.58;1.00;;;;;;;;;;5033787;28;20061;-49
2022/02/06 17:01:55;;;;;;;2.85;1.13;;;;;;;;;;5033856;28;20051;-48
2022/02/06 17:04:22;;;;;;;6.32;1.20;;;;;;;;;;5034127;28;20036;-49
2022/02/06 17:06:49;;;;;;;6.18;1.30;;;;;;;;;;5033649;28;20033;-47
2022/02/06 17:09:16;;;;;;;3.42;1.20;;;;;;;;;;5034003;28;20025;-52
2022/02/06 17:11:44;;;;;;;6.28;1.02;;;;;;;;;;5033315;28;20105;-50
2022/02/06 17:14:13;;;;;;;2.63;1.05;;;;;;;;;;5033811;28;20030;-50
2022/02/06 17:16:40;;;;;;;2.03;1.10;;;;;;;;;;5031902;28;20041;-51
2022/02/06 17:19:08;;;;;;;2.85;1.10;;;;;;;;;;5033874;28;20109;-47